Cape Sakura — 7JHZ — position and weather

sailwx.info

Track history (hours):
 
Tides and Currents Weather Stations Pressure Air Temp Water Temp Dewpoint Dewpoint Depression Visibility Wind Speed Wind Dir Waves Ship Positions

Cape Sakura

Last reported at 2015-Jun-10 00:11 UTC. Time now 2015-Jul-01 23:15 UTC.
Position S 27°10' E 154°05'.
Warning: this ship's position is 21 days out of date.

Length 292 m; draft 15.4 m.

Type: Cargo ship. MMSI: 432786000.

Date/timePositionNaut miles runAvg speedWind from/ knotsBaromVisibWave heightAir tempDewpointWater temp
2015-Jun-10 00:11S 27°10' E 154°05'3511.5
2015-Jun-09 21:10S 27°45' E 154°00'1211.5
2015-Jun-09 20:07S 27°57' E 153°59'911.8
2015-Jun-09 19:23S 28°05' E 153°58'1011.9
2015-Jun-09 18:33S 28°15' E 153°57'1311.9
2015-Jun-09 17:29S 28°28' E 153°57'21611.8
2015-Jun-08 23:10S 31°57' E 152°56'1912.0
2015-Jun-08 21:33S 32°16' E 152°50'1212.0
2015-Jun-08 20:33S 32°27' E 152°46'1211.6
2015-Jun-08 19:33S 32°36' E 152°36'1111.4
2015-Jun-08 18:33S 32°43' E 152°26'1211.7
2015-Jun-08 17:33S 32°50' E 152°15'1212.3
2015-Jun-08 16:33S 32°53' E 152°01'10 9.9
2015-Jun-08 15:33S 32°55' E 151°49'3 3.2
2015-Jun-08 14:33S 32°53' E 151°46'1 0.5
2015-Jun-08 13:33S 32°53' E 151°45'0 0.0
2015-Jun-08 12:33S 32°53' E 151°45'0 0.0
2015-Jun-08 11:33S 32°53' E 151°45'0 0.0
2015-Jun-08 10:33S 32°53' E 151°45'0 0.0
2015-Jun-08 09:33S 32°53' E 151°45'0 0.0
2015-Jun-08 08:33S 32°53' E 151°45'0 0.0
2015-Jun-08 07:33S 32°53' E 151°45'0 0.0
2015-Jun-08 06:33S 32°53' E 151°45'0 0.0
2015-Jun-08 05:33S 32°53' E 151°45'0 0.0
2015-Jun-08 04:33S 32°53' E 151°45'0 0.0
2015-Jun-08 03:27S 32°53' E 151°45'0 0.0
2015-Jun-08 02:33S 32°53' E 151°45'0 0.0
2015-Jun-08 01:33S 32°53' E 151°45'0 0.0
2015-Jun-08 00:33S 32°53' E 151°45'0 0.0
2015-Jun-07 23:33S 32°53' E 151°45'0 0.0
2015-Jun-07 22:33S 32°53' E 151°45'0 0.0
2015-Jun-07 21:33S 32°53' E 151°45'0 0.0
2015-Jun-07 20:33S 32°53' E 151°45'0 0.0
2015-Jun-07 19:33S 32°53' E 151°45'0 0.0
2015-Jun-07 18:33S 32°53' E 151°45'0 0.0
2015-Jun-07 17:33S 32°53' E 151°45'0 0.0
2015-Jun-07 16:33S 32°53' E 151°45'0 0.0
2015-Jun-07 15:33S 32°53' E 151°45'0 0.0
2015-Jun-07 14:33S 32°53' E 151°45'0 0.0
2015-Jun-07 13:33S 32°53' E 151°45'0 0.0
2015-Jun-07 12:33S 32°53' E 151°45'0 0.0
2015-Jun-07 11:33S 32°53' E 151°45'0 0.0
2015-Jun-07 10:33S 32°53' E 151°45'0 0.0
2015-Jun-07 09:33S 32°53' E 151°45'0 0.0
2015-Jun-07 08:33S 32°53' E 151°45'0 0.0
2015-Jun-07 07:33S 32°53' E 151°45'1 0.8
2015-Jun-07 06:33S 32°53' E 151°46'4 4.1
2015-Jun-07 05:34S 32°55' E 151°50'8 7.9
2015-Jun-07 04:33S 33°03' E 151°52'1 0.6
2015-Jun-07 03:26S 33°03' E 151°52'3 3.4
2015-Jun-07 02:33S 33°05' E 151°51'5 5.2
2015-Jun-07 01:33S 33°10' E 151°47'  
2015-Jun-03 23:28S 33°25' E 151°34'0 0.1
2015-Jun-03 22:31S 33°25' E 151°33'0 0.0
2015-Jun-03 21:28S 33°25' E 151°34'0 0.0
2015-Jun-03 20:19S 33°25' E 151°34'0 0.0
2015-Jun-03 19:31S 33°25' E 151°34'0 0.0
2015-Jun-03 18:22S 33°25' E 151°33'20 1.1
2015-Jun-03 00:10S 33°15' E 151°55'812.5
2015-Jun-02 23:33S 33°16' E 152°04'4 3.4
2015-Jun-02 22:31S 33°17' E 152°08'2 1.2
2015-Jun-02 21:16S 33°18' E 152°07'6 1.4
2015-Jun-02 17:08S 33°23' E 152°04'7 0.8
2015-Jun-02 07:33S 33°21' E 151°56'7 7.3
2015-Jun-02 06:32S 33°15' E 151°50'2 1.7
2015-Jun-02 05:14S 33°17' E 151°52'5 1.8
2015-Jun-02 02:32S 33°21' E 151°55'7 3.2
2015-Jun-02 00:25S 33°17' E 152°02'9 9.9
2015-Jun-01 23:32S 33°12' E 152°10'3 2.8
2015-Jun-01 22:33S 33°10' E 152°12'1 1.3
2015-Jun-01 21:33S 33°11' E 152°12'1 1.4
2015-Jun-01 20:33S 33°12' E 152°11'1 1.5
2015-Jun-01 19:33S 33°13' E 152°09'1 1.5
2015-Jun-01 18:33S 33°14' E 152°08'1 1.4
2015-Jun-01 17:33S 33°15' E 152°07'1 1.4
2015-Jun-01 16:32S 33°16' E 152°06'1 1.4
2015-Jun-01 15:33S 33°17' E 152°05'1 1.3
2015-Jun-01 14:33S 33°18' E 152°04'1 1.3
2015-Jun-01 13:29S 33°19' E 152°03'1 1.3
2015-Jun-01 12:33S 33°20' E 152°02'1 1.2
2015-Jun-01 11:30S 33°21' E 152°01'9 2.2
2015-Jun-01 07:24S 33°16' E 151°52'3 2.9
2015-Jun-01 06:22S 33°14' E 151°51'11 2.9
2015-Jun-01 02:30S 33°19' E 152°02'1111.9
2015-Jun-01 01:33S 33°23' E 152°15'  
Track history (hours):
 
Tides and Currents Weather Stations Pressure Air Temp Water Temp Dewpoint Dewpoint Depression Visibility Wind Speed Wind Dir Waves Ship Positions

Cape Sakura

Last reported at 2015-Jun-10 00:11 UTC. Time now 2015-Jul-01 23:15 UTC.
Position S 27°10' E 154°05'.
Warning: this ship's position is 21 days out of date.

Length 292 m; draft 15.4 m.

Type: Cargo ship. MMSI: 432786000.

Date/timePositionNaut miles runAvg speedWind from/ knotsBaromVisibWave heightAir tempDewpointWater temp
2015-Jun-10 00:11S 27°10' E 154°05'3511.5
2015-Jun-09 21:10S 27°45' E 154°00'1211.5
2015-Jun-09 20:07S 27°57' E 153°59'911.8
2015-Jun-09 19:23S 28°05' E 153°58'1011.9
2015-Jun-09 18:33S 28°15' E 153°57'1311.9
2015-Jun-09 17:29S 28°28' E 153°57'21611.8
2015-Jun-08 23:10S 31°57' E 152°56'1912.0
2015-Jun-08 21:33S 32°16' E 152°50'1212.0
2015-Jun-08 20:33S 32°27' E 152°46'1211.6
2015-Jun-08 19:33S 32°36' E 152°36'1111.4
2015-Jun-08 18:33S 32°43' E 152°26'1211.7
2015-Jun-08 17:33S 32°50' E 152°15'1212.3
2015-Jun-08 16:33S 32°53' E 152°01'10 9.9
2015-Jun-08 15:33S 32°55' E 151°49'3 3.2
2015-Jun-08 14:33S 32°53' E 151°46'1 0.5
2015-Jun-08 13:33S 32°53' E 151°45'0 0.0
2015-Jun-08 12:33S 32°53' E 151°45'0 0.0
2015-Jun-08 11:33S 32°53' E 151°45'0 0.0
2015-Jun-08 10:33S 32°53' E 151°45'0 0.0
2015-Jun-08 09:33S 32°53' E 151°45'0 0.0
2015-Jun-08 08:33S 32°53' E 151°45'0 0.0
2015-Jun-08 07:33S 32°53' E 151°45'0 0.0
2015-Jun-08 06:33S 32°53' E 151°45'0 0.0
2015-Jun-08 05:33S 32°53' E 151°45'0 0.0
2015-Jun-08 04:33S 32°53' E 151°45'0 0.0
2015-Jun-08 03:27S 32°53' E 151°45'0 0.0
2015-Jun-08 02:33S 32°53' E 151°45'0 0.0
2015-Jun-08 01:33S 32°53' E 151°45'0 0.0
2015-Jun-08 00:33S 32°53' E 151°45'0 0.0
2015-Jun-07 23:33S 32°53' E 151°45'0 0.0
2015-Jun-07 22:33S 32°53' E 151°45'0 0.0
2015-Jun-07 21:33S 32°53' E 151°45'0 0.0
2015-Jun-07 20:33S 32°53' E 151°45'0 0.0
2015-Jun-07 19:33S 32°53' E 151°45'0 0.0
2015-Jun-07 18:33S 32°53' E 151°45'0 0.0
2015-Jun-07 17:33S 32°53' E 151°45'0 0.0
2015-Jun-07 16:33S 32°53' E 151°45'0 0.0
2015-Jun-07 15:33S 32°53' E 151°45'0 0.0
2015-Jun-07 14:33S 32°53' E 151°45'0 0.0
2015-Jun-07 13:33S 32°53' E 151°45'0 0.0
2015-Jun-07 12:33S 32°53' E 151°45'0 0.0
2015-Jun-07 11:33S 32°53' E 151°45'0 0.0
2015-Jun-07 10:33S 32°53' E 151°45'0 0.0
2015-Jun-07 09:33S 32°53' E 151°45'0 0.0
2015-Jun-07 08:33S 32°53' E 151°45'0 0.0
2015-Jun-07 07:33S 32°53' E 151°45'1 0.8
2015-Jun-07 06:33S 32°53' E 151°46'4 4.1
2015-Jun-07 05:34S 32°55' E 151°50'8 7.9
2015-Jun-07 04:33S 33°03' E 151°52'1 0.6
2015-Jun-07 03:26S 33°03' E 151°52'3 3.4
2015-Jun-07 02:33S 33°05' E 151°51'5 5.2
2015-Jun-07 01:33S 33°10' E 151°47'  
2015-Jun-03 23:28S 33°25' E 151°34'0 0.1
2015-Jun-03 22:31S 33°25' E 151°33'0 0.0
2015-Jun-03 21:28S 33°25' E 151°34'0 0.0
2015-Jun-03 20:19S 33°25' E 151°34'0 0.0
2015-Jun-03 19:31S 33°25' E 151°34'0 0.0
2015-Jun-03 18:22S 33°25' E 151°33'20 1.1
2015-Jun-03 00:10S 33°15' E 151°55'812.5
2015-Jun-02 23:33S 33°16' E 152°04'4 3.4
2015-Jun-02 22:31S 33°17' E 152°08'2 1.2
2015-Jun-02 21:16S 33°18' E 152°07'6 1.4
2015-Jun-02 17:08S 33°23' E 152°04'7 0.8
2015-Jun-02 07:33S 33°21' E 151°56'7 7.3
2015-Jun-02 06:32S 33°15' E 151°50'2 1.7
2015-Jun-02 05:14S 33°17' E 151°52'5 1.8
2015-Jun-02 02:32S 33°21' E 151°55'7 3.2
2015-Jun-02 00:25S 33°17' E 152°02'9 9.9
2015-Jun-01 23:32S 33°12' E 152°10'3 2.8
2015-Jun-01 22:33S 33°10' E 152°12'1 1.3
2015-Jun-01 21:33S 33°11' E 152°12'1 1.4
2015-Jun-01 20:33S 33°12' E 152°11'1 1.5
2015-Jun-01 19:33S 33°13' E 152°09'1 1.5
2015-Jun-01 18:33S 33°14' E 152°08'1 1.4
2015-Jun-01 17:33S 33°15' E 152°07'1 1.4
2015-Jun-01 16:32S 33°16' E 152°06'1 1.4
2015-Jun-01 15:33S 33°17' E 152°05'1 1.3
2015-Jun-01 14:33S 33°18' E 152°04'1 1.3
2015-Jun-01 13:29S 33°19' E 152°03'1 1.3
2015-Jun-01 12:33S 33°20' E 152°02'1 1.2
2015-Jun-01 11:30S 33°21' E 152°01'9 2.2
2015-Jun-01 07:24S 33°16' E 151°52'3 2.9
2015-Jun-01 06:22S 33°14' E 151°51'11 2.9
2015-Jun-01 02:30S 33°19' E 152°02'1111.9
2015-Jun-01 01:33S 33°23' E 152°15'  

Dump ship's entire track history